Time;durP1;ratioP1;P1;durP2;ratioP2;P2;SDS_P1;SDS_P2;PMS_P1;PMS_P2;Temp;Humidity;BMP_temperature;BMP_pressure;BME280_temperature;BME280_humidity;BME280_pressure;Samples;Min_cycle;Max_cycle;Signal;HPM_P1;HPM_P2
2022/05/20 00:00:27;;;;;;;4.75;2.95;;;;;;;;;;4959897;28;20090;-73
2022/05/20 00:02:52;;;;;;;5.10;3.38;;;;;;;;;;4956653;28;20035;-73
2022/05/20 00:05:20;;;;;;;5.90;4.13;;;;;;;;;;4954567;28;20058;-73
2022/05/20 00:07:46;;;;;;;5.40;4.13;;;;;;;;;;4957027;28;20023;-73
2022/05/20 00:10:15;;;;;;;6.05;2.92;;;;;;;;;;4955669;28;20030;-73
2022/05/20 00:12:43;;;;;;;11.43;3.60;;;;;;;;;;4956798;29;20457;-74
2022/05/20 00:15:11;;;;;;;3.58;2.38;;;;;;;;;;4956383;29;20031;-73
2022/05/20 00:17:37;;;;;;;4.13;2.97;;;;;;;;;;4957003;28;20456;-74
2022/05/20 00:20:06;;;;;;;4.65;4.25;;;;;;;;;;4956355;28;20117;-73
2022/05/20 00:22:32;;;;;;;6.57;3.42;;;;;;;;;;4969328;28;20070;-74
2022/05/20 00:27:41;;;;;;;6.40;2.63;;;;;;;;;;4968950;28;20520;-73
2022/05/20 00:30:07;;;;;;;2.42;2.15;;;;;;;;;;4957342;28;20035;-73
2022/05/20 00:32:33;;;;;;;4.78;2.78;;;;;;;;;;4956675;28;20404;-74
2022/05/20 00:34:59;;;;;;;4.53;3.17;;;;;;;;;;4956104;28;20114;-74
2022/05/20 00:37:26;;;;;;;14.88;4.13;;;;;;;;;;4954896;28;20038;-73
2022/05/20 00:39:52;;;;;;;4.05;3.30;;;;;;;;;;4954255;28;20453;-74
2022/05/20 00:42:18;;;;;;;4.60;3.50;;;;;;;;;;4951521;28;20106;-74
2022/05/20 00:44:44;;;;;;;4.32;2.97;;;;;;;;;;4938491;28;20448;-74
2022/05/20 00:47:13;;;;;;;5.45;3.22;;;;;;;;;;4947720;29;20038;-73
2022/05/20 00:49:43;;;;;;;2.85;2.55;;;;;;;;;;4949890;28;20472;-73
2022/05/20 00:52:13;;;;;;;5.00;3.97;;;;;;;;;;4954572;28;20043;-74
2022/05/20 00:54:47;;;;;;;3.33;2.80;;;;;;;;;;4954596;28;20038;-73
2022/05/20 00:57:16;;;;;;;2.70;2.50;;;;;;;;;;4955918;28;20034;-74
2022/05/20 00:59:50;;;;;;;3.60;2.80;;;;;;;;;;4970890;28;20034;-73
2022/05/20 01:02:18;;;;;;;3.05;2.63;;;;;;;;;;4943187;28;20031;-73
2022/05/20 01:04:43;;;;;;;5.15;3.35;;;;;;;;;;4955311;28;20042;-74
2022/05/20 01:07:09;;;;;;;3.92;2.92;;;;;;;;;;4955060;28;20031;-74
2022/05/20 01:09:43;;;;;;;3.20;2.40;;;;;;;;;;4955826;28;20031;-73
2022/05/20 01:12:13;;;;;;;4.28;2.10;;;;;;;;;;4954998;28;20027;-73
2022/05/20 01:14:38;;;;;;;6.15;2.45;;;;;;;;;;4956011;28;20031;-71
2022/05/20 01:17:06;;;;;;;4.68;2.20;;;;;;;;;;4955231;28;20034;-73
2022/05/20 01:19:35;;;;;;;10.75;3.95;;;;;;;;;;4956053;28;20030;-73
2022/05/20 01:22:01;;;;;;;4.15;2.53;;;;;;;;;;4955215;28;20027;-73
2022/05/20 01:24:27;;;;;;;8.93;4.07;;;;;;;;;;4970684;28;20116;-73
2022/05/20 01:26:55;;;;;;;3.70;3.30;;;;;;;;;;4955088;28;20117;-73
2022/05/20 01:29:23;;;;;;;7.38;3.25;;;;;;;;;;4955302;28;20114;-73
2022/05/20 01:31:50;;;;;;;4.72;2.85;;;;;;;;;;4956025;28;20082;-73
2022/05/20 01:34:15;;;;;;;7.78;4.75;;;;;;;;;;4954530;29;20037;-73
2022/05/20 01:36:41;;;;;;;4.60;3.38;;;;;;;;;;4955784;28;20031;-73
2022/05/20 01:39:08;;;;;;;4.50;3.17;;;;;;;;;;4956076;28;20066;-73
2022/05/20 01:41:55;;;;;;;5.72;3.70;;;;;;;;;;4955927;28;20102;-73
2022/05/20 01:44:35;;;;;;;7.63;3.90;;;;;;;;;;4955215;28;20047;-74
2022/05/20 01:47:18;;;;;;;5.30;2.60;;;;;;;;;;4954815;28;20031;-74
2022/05/20 01:50:05;;;;;;;3.78;2.83;;;;;;;;;;4954173;28;20038;-74
2022/05/20 01:52:56;;;;;;;5.90;4.85;;;;;;;;;;4970867;28;20469;-74
2022/05/20 01:55:26;;;;;;;15.65;5.13;;;;;;;;;;4935891;29;20027;-73
2022/05/20 01:57:59;;;;;;;2.33;2.13;;;;;;;;;;4955162;28;20405;-73
2022/05/20 02:00:27;;;;;;;4.00;2.38;;;;;;;;;;4953778;28;20358;-73
2022/05/20 02:03:14;;;;;;;5.55;3.95;;;;;;;;;;4954037;28;20487;-74
2022/05/20 02:06:04;;;;;;;4.55;2.92;;;;;;;;;;4953698;29;20039;-73
2022/05/20 02:08:44;;;;;;;5.63;3.92;;;;;;;;;;4954820;28;20035;-73
2022/05/20 02:11:15;;;;;;;6.25;3.50;;;;;;;;;;4970329;28;20118;-74
2022/05/20 02:13:46;;;;;;;4.18;2.55;;;;;;;;;;4955253;28;20082;-73
2022/05/20 02:16:17;;;;;;;2.70;2.50;;;;;;;;;;4955338;28;20086;-73
2022/05/20 02:18:49;;;;;;;5.07;3.13;;;;;;;;;;4958935;28;20732;-73
2022/05/20 02:21:20;;;;;;;2.33;1.85;;;;;;;;;;4957490;28;20035;-73
2022/05/20 02:23:50;;;;;;;2.75;2.55;;;;;;;;;;4957642;28;20031;-74
2022/05/20 02:26:18;;;;;;;5.25;3.30;;;;;;;;;;4973001;28;20155;-73
2022/05/20 02:28:46;;;;;;;4.40;4.05;;;;;;;;;;4973191;28;20059;-73
2022/05/20 02:31:20;;;;;;;4.57;3.60;;;;;;;;;;4973596;28;20031;-73
2022/05/20 02:33:47;;;;;;;4.28;3.50;;;;;;;;;;4973491;28;20028;-74
2022/05/20 02:36:25;;;;;;;6.68;4.07;;;;;;;;;;4959011;28;20506;-73
2022/05/20 02:38:50;;;;;;;2.92;2.72;;;;;;;;;;4940318;29;20031;-73
2022/05/20 02:41:16;;;;;;;3.95;2.72;;;;;;;;;;4957261;28;20094;-73
2022/05/20 02:43:42;;;;;;;4.40;3.83;;;;;;;;;;4958367;28;20041;-73
2022/05/20 02:46:09;;;;;;;5.90;3.80;;;;;;;;;;4958517;28;20110;-74
2022/05/20 02:48:34;;;;;;;5.18;3.55;;;;;;;;;;4958161;28;20111;-72
2022/05/20 02:51:00;;;;;;;9.48;4.15;;;;;;;;;;4957839;28;20420;-73
2022/05/20 02:53:25;;;;;;;7.45;3.25;;;;;;;;;;4956348;28;20422;-73
2022/05/20 02:55:51;;;;;;;8.05;3.78;;;;;;;;;;4958339;28;20061;-72
2022/05/20 03:04:10;;;;;;;5.00;3.70;;;;;;;;;;4957132;29;20539;-72
2022/05/20 03:06:49;;;;;;;3.42;3.13;;;;;;;;;;4970920;28;20047;-73
2022/05/20 03:09:21;;;;;;;4.85;4.00;;;;;;;;;;4957938;28;20151;-72
2022/05/20 03:11:49;;;;;;;4.32;2.72;;;;;;;;;;4957887;28;20031;-73
2022/05/20 03:14:19;;;;;;;1.70;1.45;;;;;;;;;;4941029;29;20074;-74
2022/05/20 03:16:47;;;;;;;2.42;1.60;;;;;;;;;;4957364;28;20441;-71
2022/05/20 03:19:13;;;;;;;3.35;2.42;;;;;;;;;;4956514;28;20053;-73
2022/05/20 03:21:39;;;;;;;3.45;2.72;;;;;;;;;;4957841;28;20110;-73
2022/05/20 03:24:06;;;;;;;3.67;2.53;;;;;;;;;;4957115;28;20041;-73
2022/05/20 03:26:34;;;;;;;4.22;3.88;;;;;;;;;;4956638;28;20038;-73
2022/05/20 03:29:02;;;;;;;7.18;3.72;;;;;;;;;;4956606;29;20031;-74
2022/05/20 03:31:30;;;;;;;8.02;3.95;;;;;;;;;;4957816;28;20035;-73
2022/05/20 03:33:56;;;;;;;4.72;3.65;;;;;;;;;;4971358;28;20031;-73
2022/05/20 03:36:21;;;;;;;6.32;5.25;;;;;;;;;;4957113;28;20103;-74
2022/05/20 03:38:46;;;;;;;5.22;3.42;;;;;;;;;;4957858;28;20481;-73
2022/05/20 03:41:13;;;;;;;4.50;2.63;;;;;;;;;;4972297;28;20046;-74
2022/05/20 03:43:38;;;;;;;6.75;3.70;;;;;;;;;;4957713;28;20045;-73
2022/05/20 03:46:04;;;;;;;2.83;2.55;;;;;;;;;;4957846;29;20114;-73
2022/05/20 03:48:29;;;;;;;4.13;2.65;;;;;;;;;;4940403;29;20031;-74
2022/05/20 03:50:55;;;;;;;6.20;3.80;;;;;;;;;;4956829;28;20046;-74
2022/05/20 03:53:21;;;;;;;3.90;3.47;;;;;;;;;;4957025;28;20159;-74
2022/05/20 03:55:46;;;;;;;8.13;5.43;;;;;;;;;;4956344;28;20038;-72
2022/05/20 03:58:14;;;;;;;5.40;2.50;;;;;;;;;;4956972;28;20444;-73
2022/05/20 04:03:23;;;;;;;3.85;3.45;;;;;;;;;;4956650;29;20046;-74
2022/05/20 04:05:54;;;;;;;3.33;2.45;;;;;;;;;;4955222;28;20027;-73
2022/05/20 04:08:19;;;;;;;4.28;3.35;;;;;;;;;;4956961;28;20413;-74
2022/05/20 04:10:45;;;;;;;3.38;3.08;;;;;;;;;;4955322;28;20031;-73
2022/05/20 04:13:10;;;;;;;6.25;4.20;;;;;;;;;;4957021;28;20478;-74
2022/05/20 04:15:40;;;;;;;3.70;3.30;;;;;;;;;;4956782;28;20041;-72
2022/05/20 04:18:07;;;;;;;4.28;3.15;;;;;;;;;;4955730;28;20110;-73
2022/05/20 04:20:35;;;;;;;9.52;4.93;;;;;;;;;;4955167;28;20046;-73
2022/05/20 04:23:00;;;;;;;3.42;2.75;;;;;;;;;;4956435;28;20461;-73
2022/05/20 04:25:26;;;;;;;5.53;4.00;;;;;;;;;;4956698;28;20035;-74
2022/05/20 04:27:51;;;;;;;5.93;4.45;;;;;;;;;;4956218;28;20042;-73
2022/05/20 04:30:16;;;;;;;7.28;4.30;;;;;;;;;;4956523;28;20035;-73
2022/05/20 04:32:42;;;;;;;10.65;4.45;;;;;;;;;;4955937;28;20090;-74
2022/05/20 04:35:07;;;;;;;5.78;3.33;;;;;;;;;;4955942;28;20093;-73
2022/05/20 04:37:32;;;;;;;8.73;5.38;;;;;;;;;;4955967;28;20024;-73
2022/05/20 04:40:00;;;;;;;6.03;3.83;;;;;;;;;;4955321;28;20452;-73
2022/05/20 04:47:56;;;;;;;8.98;3.85;;;;;;;;;;4955346;29;20046;-74
2022/05/20 04:50:21;;;;;;;4.88;2.88;;;;;;;;;;4955160;29;20027;-74
2022/05/20 04:52:46;;;;;;;11.02;5.30;;;;;;;;;;4956001;28;20576;-72
2022/05/20 04:55:14;;;;;;;3.58;3.28;;;;;;;;;;4956310;28;20603;-73
2022/05/20 04:57:48;;;;;;;6.00;3.88;;;;;;;;;;4955174;28;20086;-73
2022/05/20 05:00:17;;;;;;;8.07;5.25;;;;;;;;;;4955479;29;20342;-74
2022/05/20 05:02:43;;;;;;;5.43;3.22;;;;;;;;;;4970401;28;20356;-73
2022/05/20 05:05:10;;;;;;;4.85;4.30;;;;;;;;;;4955020;28;20035;-73
2022/05/20 05:07:40;;;;;;;4.75;3.45;;;;;;;;;;4954969;28;20042;-72
2022/05/20 05:10:09;;;;;;;7.85;4.07;;;;;;;;;;4954531;28;20027;-73
2022/05/20 05:12:38;;;;;;;5.63;3.58;;;;;;;;;;4955804;28;20031;-73
2022/05/20 05:15:05;;;;;;;7.05;5.20;;;;;;;;;;4969668;28;20110;-73
2022/05/20 05:20:18;;;;;;;6.47;3.08;;;;;;;;;;4955670;28;20049;-72
2022/05/20 05:22:43;;;;;;;6.28;4.50;;;;;;;;;;4954066;28;20039;-73
2022/05/20 05:25:13;;;;;;;5.05;2.80;;;;;;;;;;4955823;28;20041;-73
2022/05/20 05:27:38;;;;;;;2.60;2.22;;;;;;;;;;4955290;28;20385;-72
2022/05/20 05:30:07;;;;;;;3.90;2.40;;;;;;;;;;4955184;29;20027;-72
2022/05/20 05:32:34;;;;;;;2.95;2.30;;;;;;;;;;4955965;28;20075;-72
2022/05/20 05:35:00;;;;;;;4.55;3.13;;;;;;;;;;4955923;28;20039;-73
2022/05/20 05:37:26;;;;;;;3.35;2.13;;;;;;;;;;4954318;28;20023;-73
2022/05/20 05:39:51;;;;;;;3.25;2.90;;;;;;;;;;4953900;28;20093;-73
2022/05/20 05:42:16;;;;;;;1.77;1.65;;;;;;;;;;4956082;28;20035;-73
2022/05/20 05:44:42;;;;;;;3.20;2.90;;;;;;;;;;4955219;28;20038;-73
2022/05/20 05:47:07;;;;;;;5.07;2.65;;;;;;;;;;4953943;28;20561;-73
2022/05/20 05:49:32;;;;;;;7.57;4.07;;;;;;;;;;4955234;28;20481;-72
2022/05/20 05:51:58;;;;;;;3.10;2.78;;;;;;;;;;4973738;28;20125;-73
2022/05/20 05:54:23;;;;;;;6.22;3.08;;;;;;;;;;4959286;28;20075;-74
2022/05/20 05:56:49;;;;;;;3.20;2.00;;;;;;;;;;4959376;28;20034;-72
2022/05/20 05:59:14;;;;;;;4.15;2.42;;;;;;;;;;4959306;28;20156;-73
2022/05/20 06:01:42;;;;;;;3.85;2.95;;;;;;;;;;4961842;28;20031;-73
2022/05/20 06:04:08;;;;;;;2.65;2.28;;;;;;;;;;4972841;28;20038;-74
2022/05/20 06:06:33;;;;;;;2.08;1.70;;;;;;;;;;4959063;28;20357;-73
2022/05/20 06:09:03;;;;;;;4.30;2.60;;;;;;;;;;4958659;28;20078;-73
2022/05/20 06:11:29;;;;;;;3.25;2.97;;;;;;;;;;4973748;28;20208;-73
2022/05/20 06:13:56;;;;;;;3.92;3.55;;;;;;;;;;4958312;28;20019;-73
2022/05/20 06:16:24;;;;;;;5.43;2.72;;;;;;;;;;4959010;28;20034;-74
2022/05/20 06:18:51;;;;;;;5.82;2.65;;;;;;;;;;4958944;28;20528;-73
2022/05/20 06:21:19;;;;;;;3.28;2.70;;;;;;;;;;4957584;28;20034;-73
2022/05/20 06:23:46;;;;;;;5.57;2.90;;;;;;;;;;4958846;28;20039;-74
2022/05/20 06:26:11;;;;;;;5.38;3.08;;;;;;;;;;4958357;28;20035;-73
2022/05/20 06:28:39;;;;;;;2.38;1.55;;;;;;;;;;4958506;28;20333;-73
2022/05/20 06:31:05;;;;;;;6.57;4.10;;;;;;;;;;4958771;28;20481;-73
2022/05/20 06:33:30;;;;;;;5.80;4.10;;;;;;;;;;4958706;28;20106;-73
2022/05/20 06:41:23;;;;;;;3.85;3.08;;;;;;;;;;4957557;28;20127;-73
2022/05/20 06:43:48;;;;;;;3.67;2.75;;;;;;;;;;4958263;28;20118;-73
2022/05/20 06:46:14;;;;;;;5.85;3.83;;;;;;;;;;4957449;28;20046;-73
2022/05/20 06:48:43;;;;;;;5.22;3.45;;;;;;;;;;4958283;28;20082;-73
2022/05/20 06:51:09;;;;;;;4.82;3.42;;;;;;;;;;4958843;28;20400;-73
2022/05/20 06:53:35;;;;;;;4.10;2.80;;;;;;;;;;4958331;28;20467;-73
2022/05/20 06:56:00;;;;;;;4.85;3.20;;;;;;;;;;4957414;29;20038;-72
2022/05/20 06:58:26;;;;;;;4.47;2.92;;;;;;;;;;4958643;28;20019;-73
2022/05/20 07:00:51;;;;;;;4.03;2.70;;;;;;;;;;4957852;28;20059;-73
2022/05/20 07:03:19;;;;;;;6.47;3.42;;;;;;;;;;4956618;28;20788;-74
2022/05/20 07:05:45;;;;;;;7.35;2.90;;;;;;;;;;4945792;28;20599;-73
2022/05/20 07:08:11;;;;;;;6.07;3.40;;;;;;;;;;4957675;29;20023;-73
2022/05/20 07:10:36;;;;;;;6.47;2.72;;;;;;;;;;4941107;29;20031;-73
2022/05/20 07:13:01;;;;;;;4.05;3.03;;;;;;;;;;4958112;28;20031;-72
2022/05/20 07:15:29;;;;;;;6.10;2.78;;;;;;;;;;4956992;28;20038;-73
2022/05/20 07:17:55;;;;;;;6.15;3.67;;;;;;;;;;4956153;28;20097;-73
2022/05/20 07:20:20;;;;;;;8.13;3.50;;;;;;;;;;4957760;28;20516;-74
2022/05/20 07:22:46;;;;;;;6.65;3.97;;;;;;;;;;4957598;28;20552;-74
2022/05/20 07:25:12;;;;;;;6.57;3.08;;;;;;;;;;4955519;28;20448;-74
2022/05/20 07:27:37;;;;;;;9.43;4.45;;;;;;;;;;4957416;28;20118;-73
2022/05/20 07:30:07;;;;;;;7.88;3.88;;;;;;;;;;4957731;28;20357;-74
2022/05/20 07:32:34;;;;;;;6.95;4.05;;;;;;;;;;4956502;28;20077;-74
2022/05/20 07:35:02;;;;;;;7.45;4.38;;;;;;;;;;4957556;28;20054;-73
2022/05/20 07:37:27;;;;;;;6.57;4.82;;;;;;;;;;4956835;28;20441;-73
2022/05/20 07:39:52;;;;;;;5.63;2.97;;;;;;;;;;4957415;28;20031;-74
2022/05/20 07:42:18;;;;;;;6.50;3.50;;;;;;;;;;4956724;29;20346;-74
2022/05/20 07:44:43;;;;;;;8.32;4.40;;;;;;;;;;4956813;28;20042;-73
2022/05/20 07:47:08;;;;;;;7.15;4.43;;;;;;;;;;4956961;29;20040;-73
2022/05/20 07:49:34;;;;;;;8.15;4.15;;;;;;;;;;4957950;28;20064;-73
2022/05/20 07:52:02;;;;;;;3.63;2.78;;;;;;;;;;4956780;29;20023;-76
2022/05/20 07:54:28;;;;;;;4.63;4.18;;;;;;;;;;4971248;28;20093;-75
2022/05/20 07:57:11;;;;;;;3.50;2.67;;;;;;;;;;4955769;28;20042;-74
2022/05/20 07:59:51;;;;;;;4.72;3.00;;;;;;;;;;4956774;29;20020;-73
2022/05/20 08:02:20;;;;;;;6.47;4.07;;;;;;;;;;4972916;28;20089;-73
2022/05/20 08:05:00;;;;;;;5.05;3.65;;;;;;;;;;4956797;28;20109;-73
2022/05/20 08:07:31;;;;;;;8.43;4.07;;;;;;;;;;4957301;28;20118;-73
2022/05/20 08:10:01;;;;;;;16.75;2.97;;;;;;;;;;4956555;29;20054;-73
2022/05/20 08:12:27;;;;;;;4.20;3.67;;;;;;;;;;4956499;28;20027;-73
2022/05/20 08:14:52;;;;;;;6.53;4.43;;;;;;;;;;4957333;28;20575;-74
2022/05/20 08:17:24;;;;;;;3.13;2.47;;;;;;;;;;4957283;28;20353;-72
2022/05/20 08:19:51;;;;;;;;;;;;;;;;;;4957678;28;20089;-75
2022/05/20 08:22:22;;;;;;;4.43;4.03;;;;;;;;;;4956303;29;19910;-74
2022/05/20 08:24:48;;;;;;;9.82;4.80;;;;;;;;;;4955972;28;20495;-74
2022/05/20 08:27:13;;;;;;;6.53;4.32;;;;;;;;;;4940095;29;20031;-73
2022/05/20 08:29:39;;;;;;;5.78;3.70;;;;;;;;;;4955300;28;20034;-73
2022/05/20 08:32:04;;;;;;;4.13;3.08;;;;;;;;;;4956407;28;20360;-74
2022/05/20 08:34:29;;;;;;;9.88;4.45;;;;;;;;;;4954771;28;20499;-73
2022/05/20 08:36:59;;;;;;;4.32;3.60;;;;;;;;;;4955480;28;20365;-74
2022/05/20 08:39:27;;;;;;;15.00;5.13;;;;;;;;;;4955730;28;20027;-73
2022/05/20 08:41:53;;;;;;;4.10;3.15;;;;;;;;;;4956373;28;20342;-72
2022/05/20 08:44:23;;;;;;;7.05;4.25;;;;;;;;;;4975016;28;20089;-73
2022/05/20 08:47:06;;;;;;;6.70;3.38;;;;;;;;;;4976137;28;20026;-73
2022/05/20 08:49:32;;;;;;;6.80;2.40;;;;;;;;;;4964177;28;20449;-73
2022/05/20 08:51:57;;;;;;;2.33;2.08;;;;;;;;;;4954804;29;20100;-73
2022/05/20 08:54:22;;;;;;;4.65;3.47;;;;;;;;;;4956666;28;20429;-73
2022/05/20 08:56:51;;;;;;;7.35;4.05;;;;;;;;;;4971875;28;20023;-73
2022/05/20 08:59:20;;;;;;;5.47;3.42;;;;;;;;;;4954658;28;20029;-74
2022/05/20 09:01:49;;;;;;;5.65;3.20;;;;;;;;;;4969717;28;20090;-73
2022/05/20 09:04:19;;;;;;;3.47;2.63;;;;;;;;;;4955353;28;20034;-74
2022/05/20 09:07:03;;;;;;;4.28;3.88;;;;;;;;;;4954209;28;20389;-74
2022/05/20 09:09:41;;;;;;;8.68;4.28;;;;;;;;;;4954440;28;20039;-75
2022/05/20 09:12:07;;;;;;;6.90;3.50;;;;;;;;;;4953275;28;20357;-74
2022/05/20 09:17:21;;;;;;;5.35;4.03;;;;;;;;;;4945545;28;20098;-73
2022/05/20 09:20:05;;;;;;;7.20;3.47;;;;;;;;;;4950258;28;20078;-75
2022/05/20 09:22:35;;;;;;;4.82;3.55;;;;;;;;;;4949761;28;20027;-74
2022/05/20 09:25:03;;;;;;;10.55;3.97;;;;;;;;;;4949310;28;20527;-74
2022/05/20 09:27:33;;;;;;;6.72;3.83;;;;;;;;;;4950948;28;20054;-75
2022/05/20 09:30:00;;;;;;;4.65;3.17;;;;;;;;;;4951886;28;20035;-75
2022/05/20 09:32:27;;;;;;;11.15;4.95;;;;;;;;;;4957045;28;20039;-75
2022/05/20 09:35:25;;;;;;;7.75;3.72;;;;;;;;;;4959361;28;20464;-75
2022/05/20 09:37:54;;;;;;;6.70;3.33;;;;;;;;;;4945288;29;20035;-77
2022/05/20 09:40:32;;;;;;;4.35;3.15;;;;;;;;;;4948283;28;20178;-73
2022/05/20 09:43:22;;;;;;;9.70;4.43;;;;;;;;;;4948848;28;20110;-74
2022/05/20 09:45:51;;;;;;;5.43;3.33;;;;;;;;;;4953578;29;20030;-74
2022/05/20 09:48:40;;;;;;;11.48;4.70;;;;;;;;;;4955975;28;20027;-74
2022/05/20 09:51:16;;;;;;;8.35;3.45;;;;;;;;;;4956122;28;20026;-75
2022/05/20 09:53:44;;;;;;;5.65;3.40;;;;;;;;;;4953907;29;20489;-78
2022/05/20 09:56:23;;;;;;;4.88;3.20;;;;;;;;;;4954350;28;20079;-78
2022/05/20 09:58:59;;;;;;;7.13;2.72;;;;;;;;;;4955092;28;20027;-79
2022/05/20 10:01:26;;;;;;;2.80;2.42;;;;;;;;;;4960577;28;20102;-79
2022/05/20 10:03:57;;;;;;;3.67;2.75;;;;;;;;;;4970347;28;20035;-80
2022/05/20 10:07:01;;;;;;;7.45;3.33;;;;;;;;;;4976867;28;20086;-76
2022/05/20 10:09:34;;;;;;;6.72;3.35;;;;;;;;;;4938365;28;20027;-76
2022/05/20 10:12:11;;;;;;;5.50;2.65;;;;;;;;;;4961315;28;20058;-76
2022/05/20 10:14:58;;;;;;;3.60;3.10;;;;;;;;;;4969899;28;20046;-75
2022/05/20 10:17:40;;;;;;;9.77;5.05;;;;;;;;;;4946335;28;20082;-77
2022/05/20 10:20:48;;;;;;;5.15;3.65;;;;;;;;;;4969726;28;20470;-76
2022/05/20 10:23:40;;;;;;;6.65;3.63;;;;;;;;;;4969513;28;20161;-76
2022/05/20 10:26:32;;;;;;;3.80;3.47;;;;;;;;;;4956479;28;20520;-77
2022/05/20 10:34:40;;;;;;;6.00;3.40;;;;;;;;;;4950643;28;20082;-78
2022/05/20 10:37:51;;;;;;;6.90;4.05;;;;;;;;;;4951605;29;20051;-80
2022/05/20 10:40:33;;;;;;;6.00;3.97;;;;;;;;;;4972987;28;20045;-76
2022/05/20 10:43:07;;;;;;;5.55;3.83;;;;;;;;;;4976216;28;20043;-79
2022/05/20 10:48:43;;;;;;;4.53;3.10;;;;;;;;;;4988122;28;20136;-79
2022/05/20 10:51:16;;;;;;;6.70;4.55;;;;;;;;;;4995196;28;20038;-79
2022/05/20 10:54:27;;;;;;;8.73;4.93;;;;;;;;;;4995277;28;20049;-78
2022/05/20 10:57:43;;;;;;;11.80;5.15;;;;;;;;;;4990612;28;20046;-78
2022/05/20 11:00:22;;;;;;;3.78;2.58;;;;;;;;;;4934973;28;20051;-79
2022/05/20 11:03:06;;;;;;;7.97;4.63;;;;;;;;;;4976870;28;20041;-75
2022/05/20 11:05:43;;;;;;;6.53;4.60;;;;;;;;;;4993091;28;20441;-78
2022/05/20 11:08:21;;;;;;;3.85;3.13;;;;;;;;;;4977523;28;20471;-79
2022/05/20 11:10:56;;;;;;;4.78;3.17;;;;;;;;;;4977951;28;20023;-79
2022/05/20 11:13:36;;;;;;;12.05;4.18;;;;;;;;;;4992888;28;20027;-79
2022/05/20 11:16:39;;;;;;;7.93;4.50;;;;;;;;;;4977756;28;20042;-78
2022/05/20 11:19:07;;;;;;;4.88;4.28;;;;;;;;;;4977627;28;20105;-79
2022/05/20 11:22:10;;;;;;;7.18;3.35;;;;;;;;;;4977646;28;20384;-79
2022/05/20 11:24:59;;;;;;;3.42;2.42;;;;;;;;;;4977177;28;20035;-78
2022/05/20 11:27:45;;;;;;;6.10;3.90;;;;;;;;;;4977229;28;20034;-78
2022/05/20 11:30:32;;;;;;;3.42;2.40;;;;;;;;;;4992592;28;20034;-79
2022/05/20 11:33:27;;;;;;;4.93;3.45;;;;;;;;;;4977286;28;20105;-76
2022/05/20 11:36:18;;;;;;;3.95;2.97;;;;;;;;;;4977319;28;20085;-78
2022/05/20 11:38:51;;;;;;;3.67;2.67;;;;;;;;;;4991918;28;20069;-79
2022/05/20 11:41:54;;;;;;;3.88;3.08;;;;;;;;;;4977118;28;20504;-78
2022/05/20 11:45:10;;;;;;;4.45;3.03;;;;;;;;;;4976904;28;20030;-79
2022/05/20 11:47:54;;;;;;;3.80;2.10;;;;;;;;;;4989367;28;20031;-79
2022/05/20 11:50:32;;;;;;;6.40;3.42;;;;;;;;;;4976944;28;20342;-79
2022/05/20 11:53:02;;;;;;;3.38;2.83;;;;;;;;;;4977229;28;20064;-79
2022/05/20 11:55:36;;;;;;;7.50;3.20;;;;;;;;;;4976111;28;20432;-80
2022/05/20 11:58:06;;;;;;;3.13;2.42;;;;;;;;;;4993545;28;20441;-77
2022/05/20 12:00:35;;;;;;;5.45;3.10;;;;;;;;;;4976823;28;20034;-79
2022/05/20 12:03:11;;;;;;;3.95;2.40;;;;;;;;;;4975866;28;20058;-79
2022/05/20 12:05:40;;;;;;;7.13;3.80;;;;;;;;;;4976901;28;20085;-79
2022/05/20 12:08:05;;;;;;;2.67;2.45;;;;;;;;;;4991982;28;20031;-75
2022/05/20 12:10:31;;;;;;;5.25;2.97;;;;;;;;;;4975271;28;20092;-76
2022/05/20 12:13:23;;;;;;;5.28;3.80;;;;;;;;;;4976630;28;20027;-77
2022/05/20 12:16:07;;;;;;;4.65;2.55;;;;;;;;;;4976594;28;20023;-77
2022/05/20 12:24:38;;;;;;;6.10;4.35;;;;;;;;;;4975976;28;20041;-77
2022/05/20 12:27:24;;;;;;;4.25;2.97;;;;;;;;;;4976379;28;20019;-77
2022/05/20 12:30:03;;;;;;;5.18;3.08;;;;;;;;;;4974084;28;20468;-76
2022/05/20 12:32:51;;;;;;;3.40;2.30;;;;;;;;;;4976205;28;20453;-77
2022/05/20 12:35:19;;;;;;;5.05;3.05;;;;;;;;;;4975326;28;20026;-77
2022/05/20 12:37:44;;;;;;;5.88;3.05;;;;;;;;;;4976041;28;20025;-76
2022/05/20 12:40:38;;;;;;;5.65;3.20;;;;;;;;;;4976104;28;20022;-76
2022/05/20 12:43:04;;;;;;;6.07;3.15;;;;;;;;;;4975756;28;20070;-77
2022/05/20 12:45:53;;;;;;;4.55;3.05;;;;;;;;;;4976078;28;20069;-74
2022/05/20 12:48:28;;;;;;;3.58;2.65;;;;;;;;;;4974916;28;20046;-78
2022/05/20 12:51:06;;;;;;;9.00;2.55;;;;;;;;;;4976034;28;20314;-77
2022/05/20 12:53:34;;;;;;;4.57;3.63;;;;;;;;;;4976140;28;20089;-77
2022/05/20 12:56:00;;;;;;;3.53;3.10;;;;;;;;;;4975191;28;20023;-77
2022/05/20 12:58:29;;;;;;;2.85;2.28;;;;;;;;;;4991033;28;20019;-77
2022/05/20 13:00:58;;;;;;;4.30;3.00;;;;;;;;;;4975284;28;20023;-77
2022/05/20 13:03:28;;;;;;;6.20;4.70;;;;;;;;;;4975840;28;20038;-77
2022/05/20 13:06:01;;;;;;;4.60;2.72;;;;;;;;;;4974670;28;20428;-77
2022/05/20 13:08:31;;;;;;;9.63;5.78;;;;;;;;;;4974645;28;20023;-77
2022/05/20 13:11:11;;;;;;;4.43;3.08;;;;;;;;;;4975575;28;20023;-77
2022/05/20 13:13:37;;;;;;;4.82;3.20;;;;;;;;;;4975630;28;20114;-77
2022/05/20 13:16:03;;;;;;;4.85;2.97;;;;;;;;;;4975504;28;20548;-77
2022/05/20 13:18:33;;;;;;;7.10;4.22;;;;;;;;;;4975756;28;20022;-77
2022/05/20 13:21:27;;;;;;;5.65;5.07;;;;;;;;;;4974596;28;20153;-77
2022/05/20 13:23:54;;;;;;;;;;;;;;;;;;4974717;28;20373;-75
2022/05/20 13:26:23;;;;;;;7.93;3.95;;;;;;;;;;4975500;28;19921;-76
2022/05/20 13:28:50;;;;;;;8.23;4.03;;;;;;;;;;4975262;28;20134;-76
2022/05/20 13:31:21;;;;;;;9.02;4.53;;;;;;;;;;4975559;28;20360;-79
2022/05/20 13:33:46;;;;;;;14.00;5.95;;;;;;;;;;4990651;28;20453;-76
2022/05/20 13:36:17;;;;;;;6.93;4.95;;;;;;;;;;4990491;28;20041;-78
2022/05/20 13:38:45;;;;;;;7.47;5.47;;;;;;;;;;4975313;28;20023;-76
2022/05/20 13:41:13;;;;;;;13.05;4.15;;;;;;;;;;4990591;28;20019;-75
2022/05/20 13:43:40;;;;;;;5.30;2.72;;;;;;;;;;4975278;28;20030;-75
2022/05/20 13:49:15;;;;;;;2.35;1.90;;;;;;;;;;4975065;28;20089;-75
2022/05/20 13:51:50;;;;;;;0.70;0.70;;;;;;;;;;4975272;28;20356;-74
2022/05/20 13:54:22;;;;;;;1.25;0.88;;;;;;;;;;4990471;28;20031;-76
2022/05/20 13:56:52;;;;;;;0.98;0.95;;;;;;;;;;4975188;28;20054;-74
2022/05/20 13:59:32;;;;;;;1.83;1.25;;;;;;;;;;4990510;28;20356;-75
2022/05/20 14:02:09;;;;;;;2.08;0.73;;;;;;;;;;4975105;28;20108;-74
2022/05/20 14:04:45;;;;;;;0.63;0.63;;;;;;;;;;4975135;28;20037;-74
2022/05/20 14:07:34;;;;;;;1.30;0.68;;;;;;;;;;4975183;28;20023;-75
2022/05/20 14:10:06;;;;;;;0.73;0.70;;;;;;;;;;4974141;28;20026;-76
2022/05/20 14:12:32;;;;;;;0.80;0.68;;;;;;;;;;4978807;28;20066;-76
2022/05/20 14:15:00;;;;;;;0.55;0.43;;;;;;;;;;4967237;28;20075;-74
2022/05/20 14:17:27;;;;;;;0.50;0.50;;;;;;;;;;4946053;28;20177;-75
2022/05/20 14:19:52;;;;;;;0.60;0.60;;;;;;;;;;4940734;29;20111;-75
2022/05/20 14:22:20;;;;;;;0.98;0.80;;;;;;;;;;4955798;28;20509;-75
2022/05/20 14:25:01;;;;;;;0.57;0.52;;;;;;;;;;4974883;28;20451;-75
2022/05/20 14:27:40;;;;;;;1.27;0.85;;;;;;;;;;4950639;28;20035;-74
2022/05/20 14:30:36;;;;;;;3.67;0.88;;;;;;;;;;4942459;28;20558;-74
2022/05/20 14:33:07;;;;;;;2.00;1.60;;;;;;;;;;4971554;28;20038;-76
2022/05/20 14:35:40;;;;;;;1.83;1.38;;;;;;;;;;4940986;29;20042;-74
2022/05/20 14:38:07;;;;;;;1.08;1.00;;;;;;;;;;4957307;28;20513;-74
2022/05/20 14:40:37;;;;;;;1.33;1.20;;;;;;;;;;4955052;28;20027;-75
2022/05/20 14:43:06;;;;;;;0.88;0.75;;;;;;;;;;4948728;28;20042;-75
2022/05/20 14:45:59;;;;;;;0.88;0.75;;;;;;;;;;4952550;28;20389;-75
2022/05/20 14:48:33;;;;;;;0.68;0.57;;;;;;;;;;4964460;28;20031;-74
2022/05/20 14:50:58;;;;;;;1.00;0.65;;;;;;;;;;4952736;28;20027;-76
2022/05/20 14:53:46;;;;;;;0.38;0.38;;;;;;;;;;4972329;28;20102;-75
2022/05/20 14:56:43;;;;;;;0.82;0.82;;;;;;;;;;4967225;28;20038;-76
2022/05/20 14:59:10;;;;;;;0.10;0.10;;;;;;;;;;4969661;28;20470;-76
2022/05/20 15:01:38;;;;;;;0.65;0.55;;;;;;;;;;4956642;28;20046;-76
2022/05/20 15:04:04;;;;;;;0.10;0.10;;;;;;;;;;4954972;28;20095;-76
2022/05/20 15:09:56;;;;;;;0.10;0.10;;;;;;;;;;4970328;28;20082;-76
2022/05/20 15:12:22;;;;;;;0.20;0.20;;;;;;;;;;4971544;28;20034;-75
2022/05/20 15:14:48;;;;;;;0.70;0.47;;;;;;;;;;4968797;28;20031;-76
2022/05/20 15:17:15;;;;;;;0.20;0.20;;;;;;;;;;4985494;28;20053;-75
2022/05/20 15:19:42;;;;;;;0.77;0.65;;;;;;;;;;4960329;28;20051;-74
2022/05/20 15:22:08;;;;;;;0.60;0.60;;;;;;;;;;4948643;28;20445;-76
2022/05/20 15:24:36;;;;;;;0.60;0.40;;;;;;;;;;4973686;28;20038;-74
2022/05/20 15:27:10;;;;;;;5.28;0.50;;;;;;;;;;4961617;28;20039;-74
2022/05/20 15:29:35;;;;;;;0.20;0.20;;;;;;;;;;4963330;28;20027;-74
2022/05/20 15:34:54;;;;;;;0.25;0.25;;;;;;;;;;4938990;29;20113;-75
2022/05/20 15:37:40;;;;;;;0.60;0.57;;;;;;;;;;4951302;28;20031;-74
2022/05/20 15:40:09;;;;;;;0.98;0.40;;;;;;;;;;4956228;29;20023;-74
2022/05/20 15:42:35;;;;;;;1.67;0.85;;;;;;;;;;4957234;28;20082;-74
2022/05/20 15:45:00;;;;;;;1.55;0.98;;;;;;;;;;4956879;28;20035;-74
2022/05/20 15:47:28;;;;;;;1.98;1.08;;;;;;;;;;4956660;28;20448;-73
2022/05/20 15:49:56;;;;;;;2.95;1.02;;;;;;;;;;4956268;28;20034;-74
2022/05/20 15:52:25;;;;;;;0.52;0.52;;;;;;;;;;4956168;28;20027;-74
2022/05/20 15:54:53;;;;;;;0.60;0.45;;;;;;;;;;4957186;28;20031;-74
2022/05/20 15:57:23;;;;;;;0.45;0.45;;;;;;;;;;4955543;28;20027;-74
2022/05/20 15:59:51;;;;;;;0.50;0.50;;;;;;;;;;4956015;28;20090;-74